sensor_id;sensor_type;location;lat;lon;timestamp;P1;durP1;ratioP1;P2;durP2;ratioP2
77802;SDS011;66993;48.256;16.422;2023-06-14T00:04:49;7.4;;;5.1;;
77802;SDS011;66993;48.256;16.422;2023-06-14T00:09:51;10.9;;;5.1;;
77802;SDS011;66993;48.256;16.422;2023-06-14T00:14:52;9.6;;;5.0;;
77802;SDS011;66993;48.256;16.422;2023-06-14T00:19:53;7.5;;;5.6;;
77802;SDS011;66993;48.256;16.422;2023-06-14T00:24:54;7.4;;;5.4;;
77802;SDS011;66993;48.256;16.422;2023-06-14T00:29:56;8.5;;;5.1;;
77802;SDS011;66993;48.256;16.422;2023-06-14T00:34:57;8.2;;;5.2;;
77802;SDS011;66993;48.256;16.422;2023-06-14T00:39:58;8.0;;;4.9;;
77802;SDS011;66993;48.256;16.422;2023-06-14T00:45:00;7.3;;;5.5;;
77802;SDS011;66993;48.256;16.422;2023-06-14T00:50:01;7.7;;;5.2;;
77802;SDS011;66993;48.256;16.422;2023-06-14T00:55:03;7.5;;;5.3;;
77802;SDS011;66993;48.256;16.422;2023-06-14T01:00:04;7.1;;;4.7;;
77802;SDS011;66993;48.256;16.422;2023-06-14T01:05:05;8.4;;;5.7;;
77802;SDS011;66993;48.256;16.422;2023-06-14T01:10:11;11.7;;;6.1;;
77802;SDS011;66993;48.256;16.422;2023-06-14T01:15:08;9.2;;;6.2;;
77802;SDS011;66993;48.256;16.422;2023-06-14T01:20:10;9.8;;;6.0;;
77802;SDS011;66993;48.256;16.422;2023-06-14T01:25:10;9.5;;;6.0;;
77802;SDS011;66993;48.256;16.422;2023-06-14T01:30:12;9.1;;;5.6;;
77802;SDS011;66993;48.256;16.422;2023-06-14T01:35:13;10.1;;;6.4;;
77802;SDS011;66993;48.256;16.422;2023-06-14T01:40:14;9.1;;;6.3;;
77802;SDS011;66993;48.256;16.422;2023-06-14T01:45:16;9.9;;;6.2;;
77802;SDS011;66993;48.256;16.422;2023-06-14T01:50:18;9.0;;;5.9;;
77802;SDS011;66993;48.256;16.422;2023-06-14T01:55:18;9.0;;;5.5;;
77802;SDS011;66993;48.256;16.422;2023-06-14T02:00:19;9.5;;;6.3;;
77802;SDS011;66993;48.256;16.422;2023-06-14T02:05:20;9.3;;;6.8;;
77802;SDS011;66993;48.256;16.422;2023-06-14T02:10:22;9.4;;;5.7;;
77802;SDS011;66993;48.256;16.422;2023-06-14T02:15:23;8.3;;;5.3;;
77802;SDS011;66993;48.256;16.422;2023-06-14T02:20:25;8.6;;;5.8;;
77802;SDS011;66993;48.256;16.422;2023-06-14T02:25:25;8.9;;;6.3;;
77802;SDS011;66993;48.256;16.422;2023-06-14T02:30:27;10.2;;;6.8;;
77802;SDS011;66993;48.256;16.422;2023-06-14T02:35:29;9.4;;;6.3;;
77802;SDS011;66993;48.256;16.422;2023-06-14T02:40:29;8.3;;;5.4;;
77802;SDS011;66993;48.256;16.422;2023-06-14T02:45:31;9.5;;;5.6;;
77802;SDS011;66993;48.256;16.422;2023-06-14T02:50:32;13.2;;;6.7;;
77802;SDS011;66993;48.256;16.422;2023-06-14T02:55:33;8.0;;;6.1;;
77802;SDS011;66993;48.256;16.422;2023-06-14T03:00:35;10.1;;;6.0;;
77802;SDS011;66993;48.256;16.422;2023-06-14T03:05:36;8.1;;;5.1;;
77802;SDS011;66993;48.256;16.422;2023-06-14T03:10:38;8.0;;;5.1;;
77802;SDS011;66993;48.256;16.422;2023-06-14T03:15:38;8.6;;;6.1;;
77802;SDS011;66993;48.256;16.422;2023-06-14T03:20:40;8.8;;;5.9;;
77802;SDS011;66993;48.256;16.422;2023-06-14T03:25:42;7.6;;;5.9;;
77802;SDS011;66993;48.256;16.422;2023-06-14T03:30:43;8.5;;;5.7;;
77802;SDS011;66993;48.256;16.422;2023-06-14T03:35:44;10.4;;;5.6;;
77802;SDS011;66993;48.256;16.422;2023-06-14T03:40:45;7.2;;;5.6;;
77802;SDS011;66993;48.256;16.422;2023-06-14T03:45:47;9.8;;;6.3;;
77802;SDS011;66993;48.256;16.422;2023-06-14T03:50:48;10.5;;;6.3;;
77802;SDS011;66993;48.256;16.422;2023-06-14T03:55:49;8.3;;;5.7;;
77802;SDS011;66993;48.256;16.422;2023-06-14T04:00:52;9.4;;;5.5;;
77802;SDS011;66993;48.256;16.422;2023-06-14T04:05:52;8.4;;;6.2;;
77802;SDS011;66993;48.256;16.422;2023-06-14T04:10:54;8.9;;;5.9;;
77802;SDS011;66993;48.256;16.422;2023-06-14T04:15:54;8.0;;;5.9;;
77802;SDS011;66993;48.256;16.422;2023-06-14T04:20:56;8.2;;;5.3;;
77802;SDS011;66993;48.256;16.422;2023-06-14T04:25:57;8.6;;;5.0;;
77802;SDS011;66993;48.256;16.422;2023-06-14T04:30:58;7.6;;;5.4;;
77802;SDS011;66993;48.256;16.422;2023-06-14T04:36:00;9.1;;;5.9;;
77802;SDS011;66993;48.256;16.422;2023-06-14T04:41:01;8.1;;;5.5;;
77802;SDS011;66993;48.256;16.422;2023-06-14T04:46:02;10.5;;;5.1;;
77802;SDS011;66993;48.256;16.422;2023-06-14T04:51:04;8.0;;;4.5;;
77802;SDS011;66993;48.256;16.422;2023-06-14T04:56:05;9.5;;;5.4;;
77802;SDS011;66993;48.256;16.422;2023-06-14T05:01:11;8.3;;;5.1;;
77802;SDS011;66993;48.256;16.422;2023-06-14T05:06:08;10.5;;;5.2;;
77802;SDS011;66993;48.256;16.422;2023-06-14T05:11:09;6.3;;;4.3;;
77802;SDS011;66993;48.256;16.422;2023-06-14T05:16:10;6.9;;;4.6;;
77802;SDS011;66993;48.256;16.422;2023-06-14T05:21:12;7.7;;;5.1;;
77802;SDS011;66993;48.256;16.422;2023-06-14T05:26:13;8.6;;;5.4;;
77802;SDS011;66993;48.256;16.422;2023-06-14T05:31:14;8.6;;;4.6;;
77802;SDS011;66993;48.256;16.422;2023-06-14T05:36:15;7.2;;;4.1;;
77802;SDS011;66993;48.256;16.422;2023-06-14T05:41:17;6.2;;;3.7;;
77802;SDS011;66993;48.256;16.422;2023-06-14T05:46:18;7.9;;;5.1;;
77802;SDS011;66993;48.256;16.422;2023-06-14T05:51:19;7.6;;;4.4;;
77802;SDS011;66993;48.256;16.422;2023-06-14T05:56:21;8.7;;;4.2;;
77802;SDS011;66993;48.256;16.422;2023-06-14T06:01:23;5.9;;;3.6;;
77802;SDS011;66993;48.256;16.422;2023-06-14T06:06:23;6.5;;;3.8;;
77802;SDS011;66993;48.256;16.422;2023-06-14T06:11:24;6.3;;;4.3;;
77802;SDS011;66993;48.256;16.422;2023-06-14T06:16:26;7.8;;;4.4;;
77802;SDS011;66993;48.256;16.422;2023-06-14T06:21:27;6.5;;;3.9;;
77802;SDS011;66993;48.256;16.422;2023-06-14T06:26:28;7.6;;;4.0;;
77802;SDS011;66993;48.256;16.422;2023-06-14T06:31:30;6.5;;;3.7;;
77802;SDS011;66993;48.256;16.422;2023-06-14T06:36:31;5.7;;;3.9;;
77802;SDS011;66993;48.256;16.422;2023-06-14T06:41:33;8.7;;;4.0;;
77802;SDS011;66993;48.256;16.422;2023-06-14T06:46:34;6.8;;;3.6;;
77802;SDS011;66993;48.256;16.422;2023-06-14T06:51:35;6.0;;;3.2;;
77802;SDS011;66993;48.256;16.422;2023-06-14T06:56:36;6.7;;;3.3;;
77802;SDS011;66993;48.256;16.422;2023-06-14T07:01:37;5.5;;;3.6;;
77802;SDS011;66993;48.256;16.422;2023-06-14T07:06:39;5.1;;;3.5;;
77802;SDS011;66993;48.256;16.422;2023-06-14T07:11:40;5.3;;;3.5;;
77802;SDS011;66993;48.256;16.422;2023-06-14T07:16:41;4.9;;;3.2;;
77802;SDS011;66993;48.256;16.422;2023-06-14T07:21:43;5.3;;;3.3;;
77802;SDS011;66993;48.256;16.422;2023-06-14T07:26:44;4.8;;;3.6;;
77802;SDS011;66993;48.256;16.422;2023-06-14T07:31:45;6.5;;;4.1;;
77802;SDS011;66993;48.256;16.422;2023-06-14T07:36:47;6.2;;;3.4;;
77802;SDS011;66993;48.256;16.422;2023-06-14T07:41:48;4.8;;;3.1;;
77802;SDS011;66993;48.256;16.422;2023-06-14T07:46:49;5.0;;;3.2;;
77802;SDS011;66993;48.256;16.422;2023-06-14T07:51:50;4.9;;;3.5;;
77802;SDS011;66993;48.256;16.422;2023-06-14T07:56:52;7.4;;;3.6;;
77802;SDS011;66993;48.256;16.422;2023-06-14T08:01:53;6.3;;;3.3;;
77802;SDS011;66993;48.256;16.422;2023-06-14T08:06:54;8.3;;;3.6;;
77802;SDS011;66993;48.256;16.422;2023-06-14T08:11:56;7.2;;;2.9;;
77802;SDS011;66993;48.256;16.422;2023-06-14T08:16:57;5.6;;;3.2;;
77802;SDS011;66993;48.256;16.422;2023-06-14T08:21:58;5.8;;;3.4;;
77802;SDS011;66993;48.256;16.422;2023-06-14T08:27:00;7.4;;;3.3;;
77802;SDS011;66993;48.256;16.422;2023-06-14T08:32:01;5.2;;;3.2;;
77802;SDS011;66993;48.256;16.422;2023-06-14T08:37:03;4.6;;;2.9;;
77802;SDS011;66993;48.256;16.422;2023-06-14T08:42:04;5.4;;;3.3;;
77802;SDS011;66993;48.256;16.422;2023-06-14T08:47:05;5.5;;;3.5;;
77802;SDS011;66993;48.256;16.422;2023-06-14T08:52:07;6.9;;;3.4;;
77802;SDS011;66993;48.256;16.422;2023-06-14T08:57:10;4.7;;;3.1;;
77802;SDS011;66993;48.256;16.422;2023-06-14T09:02:09;7.8;;;3.2;;
77802;SDS011;66993;48.256;16.422;2023-06-14T09:07:10;6.6;;;3.3;;
77802;SDS011;66993;48.256;16.422;2023-06-14T09:12:12;6.5;;;3.1;;
77802;SDS011;66993;48.256;16.422;2023-06-14T09:17:13;5.4;;;2.9;;
77802;SDS011;66993;48.256;16.422;2023-06-14T09:22:15;5.0;;;2.8;;
77802;SDS011;66993;48.256;16.422;2023-06-14T09:27:16;4.9;;;2.8;;
77802;SDS011;66993;48.256;16.422;2023-06-14T09:32:17;5.3;;;3.1;;
77802;SDS011;66993;48.256;16.422;2023-06-14T09:37:27;6.4;;;3.5;;
77802;SDS011;66993;48.256;16.422;2023-06-14T09:42:19;4.6;;;2.6;;
77802;SDS011;66993;48.256;16.422;2023-06-14T09:47:21;6.0;;;2.8;;
77802;SDS011;66993;48.256;16.422;2023-06-14T09:52:22;4.7;;;2.7;;
77802;SDS011;66993;48.256;16.422;2023-06-14T09:57:24;5.5;;;3.1;;
77802;SDS011;66993;48.256;16.422;2023-06-14T10:02:26;4.7;;;2.8;;
77802;SDS011;66993;48.256;16.422;2023-06-14T10:07:26;5.5;;;2.8;;
77802;SDS011;66993;48.256;16.422;2023-06-14T10:12:27;5.2;;;2.8;;
77802;SDS011;66993;48.256;16.422;2023-06-14T10:17:32;7.2;;;2.8;;
77802;SDS011;66993;48.256;16.422;2023-06-14T10:22:32;7.6;;;3.3;;
77802;SDS011;66993;48.256;16.422;2023-06-14T10:27:31;5.2;;;3.1;;
77802;SDS011;66993;48.256;16.422;2023-06-14T10:32:33;5.3;;;2.8;;
77802;SDS011;66993;48.256;16.422;2023-06-14T10:37:34;5.7;;;3.0;;
77802;SDS011;66993;48.256;16.422;2023-06-14T10:42:35;4.9;;;2.8;;
77802;SDS011;66993;48.256;16.422;2023-06-14T10:47:36;4.5;;;2.7;;
77802;SDS011;66993;48.256;16.422;2023-06-14T10:52:39;5.0;;;3.0;;
77802;SDS011;66993;48.256;16.422;2023-06-14T10:57:40;5.0;;;2.7;;
77802;SDS011;66993;48.256;16.422;2023-06-14T11:02:48;5.2;;;2.7;;
77802;SDS011;66993;48.256;16.422;2023-06-14T11:07:51;5.0;;;2.5;;
77802;SDS011;66993;48.256;16.422;2023-06-14T11:12:43;4.5;;;2.9;;
77802;SDS011;66993;48.256;16.422;2023-06-14T11:22:46;6.9;;;2.8;;
77802;SDS011;66993;48.256;16.422;2023-06-14T11:27:48;6.1;;;2.9;;
77802;SDS011;66993;48.256;16.422;2023-06-14T11:32:48;6.0;;;2.8;;
77802;SDS011;66993;48.256;16.422;2023-06-14T11:37:52;5.2;;;3.2;;
77802;SDS011;66993;48.256;16.422;2023-06-14T11:42:57;7.0;;;3.3;;
77802;SDS011;66993;48.256;16.422;2023-06-14T11:47:54;5.2;;;3.2;;
77802;SDS011;66993;48.256;16.422;2023-06-14T11:52:54;5.2;;;2.9;;
77802;SDS011;66993;48.256;16.422;2023-06-14T11:57:55;4.5;;;3.0;;
77802;SDS011;66993;48.256;16.422;2023-06-14T12:02:56;4.5;;;3.3;;
77802;SDS011;66993;48.256;16.422;2023-06-14T12:07:58;6.7;;;3.4;;
77802;SDS011;66993;48.256;16.422;2023-06-14T12:12:59;5.6;;;2.9;;
77802;SDS011;66993;48.256;16.422;2023-06-14T12:18:00;6.1;;;2.8;;
77802;SDS011;66993;48.256;16.422;2023-06-14T12:23:02;6.0;;;2.9;;
77802;SDS011;66993;48.256;16.422;2023-06-14T12:28:04;4.9;;;2.9;;
77802;SDS011;66993;48.256;16.422;2023-06-14T12:33:04;6.1;;;3.0;;
77802;SDS011;66993;48.256;16.422;2023-06-14T12:38:05;6.3;;;2.9;;
77802;SDS011;66993;48.256;16.422;2023-06-14T12:43:06;5.7;;;2.8;;
77802;SDS011;66993;48.256;16.422;2023-06-14T12:48:08;5.0;;;2.5;;
77802;SDS011;66993;48.256;16.422;2023-06-14T12:53:09;4.9;;;2.9;;
77802;SDS011;66993;48.256;16.422;2023-06-14T12:58:10;6.0;;;3.0;;
77802;SDS011;66993;48.256;16.422;2023-06-14T13:03:12;5.5;;;2.7;;
77802;SDS011;66993;48.256;16.422;2023-06-14T13:08:13;5.6;;;3.0;;
77802;SDS011;66993;48.256;16.422;2023-06-14T13:13:15;4.5;;;2.5;;
77802;SDS011;66993;48.256;16.422;2023-06-14T13:18:15;4.1;;;2.7;;
77802;SDS011;66993;48.256;16.422;2023-06-14T13:23:18;8.2;;;3.3;;
77802;SDS011;66993;48.256;16.422;2023-06-14T13:28:18;5.1;;;2.7;;
77802;SDS011;66993;48.256;16.422;2023-06-14T13:33:19;5.7;;;2.8;;
77802;SDS011;66993;48.256;16.422;2023-06-14T13:38:21;4.8;;;2.7;;
77802;SDS011;66993;48.256;16.422;2023-06-14T13:43:22;6.1;;;3.4;;
77802;SDS011;66993;48.256;16.422;2023-06-14T13:48:23;5.5;;;3.1;;
77802;SDS011;66993;48.256;16.422;2023-06-14T13:53:25;4.8;;;2.6;;
77802;SDS011;66993;48.256;16.422;2023-06-14T13:58:26;5.9;;;2.8;;
77802;SDS011;66993;48.256;16.422;2023-06-14T14:03:27;5.5;;;2.6;;
77802;SDS011;66993;48.256;16.422;2023-06-14T14:08:28;5.0;;;3.2;;
77802;SDS011;66993;48.256;16.422;2023-06-14T14:13:30;6.2;;;3.3;;
77802;SDS011;66993;48.256;16.422;2023-06-14T14:18:31;7.3;;;3.3;;
77802;SDS011;66993;48.256;16.422;2023-06-14T14:23:32;5.4;;;2.6;;
77802;SDS011;66993;48.256;16.422;2023-06-14T14:28:33;5.6;;;2.7;;
77802;SDS011;66993;48.256;16.422;2023-06-14T14:33:35;6.5;;;2.9;;
77802;SDS011;66993;48.256;16.422;2023-06-14T14:38:38;6.3;;;3.2;;
77802;SDS011;66993;48.256;16.422;2023-06-14T14:43:37;5.1;;;2.6;;
77802;SDS011;66993;48.256;16.422;2023-06-14T14:48:39;6.7;;;2.7;;
77802;SDS011;66993;48.256;16.422;2023-06-14T14:53:40;5.3;;;2.7;;
77802;SDS011;66993;48.256;16.422;2023-06-14T14:58:41;4.6;;;2.9;;
77802;SDS011;66993;48.256;16.422;2023-06-14T15:03:43;5.2;;;2.9;;
77802;SDS011;66993;48.256;16.422;2023-06-14T15:08:44;7.2;;;3.0;;
77802;SDS011;66993;48.256;16.422;2023-06-14T15:13:46;4.5;;;2.9;;
77802;SDS011;66993;48.256;16.422;2023-06-14T15:18:47;4.8;;;2.7;;
77802;SDS011;66993;48.256;16.422;2023-06-14T15:23:48;4.7;;;3.1;;
77802;SDS011;66993;48.256;16.422;2023-06-14T15:28:50;5.1;;;3.2;;
77802;SDS011;66993;48.256;16.422;2023-06-14T15:33:50;4.5;;;3.3;;
77802;SDS011;66993;48.256;16.422;2023-06-14T15:38:53;4.9;;;3.1;;
77802;SDS011;66993;48.256;16.422;2023-06-14T15:43:53;5.2;;;2.9;;
77802;SDS011;66993;48.256;16.422;2023-06-14T15:48:54;6.5;;;3.4;;
77802;SDS011;66993;48.256;16.422;2023-06-14T15:53:56;4.6;;;3.5;;
77802;SDS011;66993;48.256;16.422;2023-06-14T15:58:57;6.4;;;3.2;;
77802;SDS011;66993;48.256;16.422;2023-06-14T16:03:58;7.0;;;3.0;;
77802;SDS011;66993;48.256;16.422;2023-06-14T16:08:59;10.2;;;3.3;;
77802;SDS011;66993;48.256;16.422;2023-06-14T16:14:01;7.6;;;3.9;;
77802;SDS011;66993;48.256;16.422;2023-06-14T16:19:02;9.5;;;4.1;;
77802;SDS011;66993;48.256;16.422;2023-06-14T16:24:04;7.0;;;3.9;;
77802;SDS011;66993;48.256;16.422;2023-06-14T16:29:05;9.1;;;4.1;;
77802;SDS011;66993;48.256;16.422;2023-06-14T16:34:06;6.8;;;3.8;;
77802;SDS011;66993;48.256;16.422;2023-06-14T16:39:07;7.7;;;4.1;;
77802;SDS011;66993;48.256;16.422;2023-06-14T16:44:09;5.7;;;4.2;;
77802;SDS011;66993;48.256;16.422;2023-06-14T16:49:10;6.3;;;4.0;;
77802;SDS011;66993;48.256;16.422;2023-06-14T16:54:11;7.5;;;3.9;;
77802;SDS011;66993;48.256;16.422;2023-06-14T16:59:12;7.4;;;3.7;;
77802;SDS011;66993;48.256;16.422;2023-06-14T17:04:14;7.9;;;4.5;;
77802;SDS011;66993;48.256;16.422;2023-06-14T17:09:15;6.7;;;4.2;;
77802;SDS011;66993;48.256;16.422;2023-06-14T17:14:18;6.4;;;4.1;;
77802;SDS011;66993;48.256;16.422;2023-06-14T17:19:18;6.3;;;4.1;;
77802;SDS011;66993;48.256;16.422;2023-06-14T17:24:19;6.8;;;3.8;;
77802;SDS011;66993;48.256;16.422;2023-06-14T17:29:20;6.9;;;3.6;;
77802;SDS011;66993;48.256;16.422;2023-06-14T17:34:21;6.6;;;4.2;;
77802;SDS011;66993;48.256;16.422;2023-06-14T17:39:23;6.4;;;4.4;;
77802;SDS011;66993;48.256;16.422;2023-06-14T17:44:25;7.9;;;4.3;;
77802;SDS011;66993;48.256;16.422;2023-06-14T17:49:25;8.9;;;4.0;;
77802;SDS011;66993;48.256;16.422;2023-06-14T17:54:27;7.5;;;4.6;;
77802;SDS011;66993;48.256;16.422;2023-06-14T17:59:28;7.4;;;4.8;;
77802;SDS011;66993;48.256;16.422;2023-06-14T18:04:29;7.2;;;4.2;;
77802;SDS011;66993;48.256;16.422;2023-06-14T18:09:31;7.3;;;4.2;;
77802;SDS011;66993;48.256;16.422;2023-06-14T18:14:32;5.5;;;3.8;;
77802;SDS011;66993;48.256;16.422;2023-06-14T18:19:33;7.8;;;4.5;;
77802;SDS011;66993;48.256;16.422;2023-06-14T18:24:35;5.8;;;4.3;;
77802;SDS011;66993;48.256;16.422;2023-06-14T18:29:36;6.2;;;4.2;;
77802;SDS011;66993;48.256;16.422;2023-06-14T18:34:37;6.0;;;4.1;;
77802;SDS011;66993;48.256;16.422;2023-06-14T18:39:39;6.2;;;4.0;;
77802;SDS011;66993;48.256;16.422;2023-06-14T18:44:40;5.6;;;4.1;;
77802;SDS011;66993;48.256;16.422;2023-06-14T18:49:41;9.3;;;4.7;;
77802;SDS011;66993;48.256;16.422;2023-06-14T18:54:42;7.0;;;4.3;;
77802;SDS011;66993;48.256;16.422;2023-06-14T18:59:44;6.8;;;4.6;;
77802;SDS011;66993;48.256;16.422;2023-06-14T19:04:45;6.7;;;4.5;;
77802;SDS011;66993;48.256;16.422;2023-06-14T19:09:47;7.9;;;4.7;;
77802;SDS011;66993;48.256;16.422;2023-06-14T19:14:48;6.8;;;4.9;;
77802;SDS011;66993;48.256;16.422;2023-06-14T19:19:49;7.6;;;4.9;;
77802;SDS011;66993;48.256;16.422;2023-06-14T19:24:50;7.7;;;5.6;;
77802;SDS011;66993;48.256;16.422;2023-06-14T19:29:52;8.2;;;4.9;;
77802;SDS011;66993;48.256;16.422;2023-06-14T19:34:53;9.9;;;5.6;;
77802;SDS011;66993;48.256;16.422;2023-06-14T19:39:54;10.0;;;6.4;;
77802;SDS011;66993;48.256;16.422;2023-06-14T19:44:56;9.2;;;6.0;;
77802;SDS011;66993;48.256;16.422;2023-06-14T19:49:57;11.7;;;6.0;;
77802;SDS011;66993;48.256;16.422;2023-06-14T19:54:58;8.2;;;5.5;;
77802;SDS011;66993;48.256;16.422;2023-06-14T19:59:59;9.6;;;6.2;;
77802;SDS011;66993;48.256;16.422;2023-06-14T20:05:02;9.7;;;6.3;;
77802;SDS011;66993;48.256;16.422;2023-06-14T20:10:02;9.9;;;6.0;;
77802;SDS011;66993;48.256;16.422;2023-06-14T20:15:04;11.4;;;6.6;;
77802;SDS011;66993;48.256;16.422;2023-06-14T20:20:05;9.1;;;5.5;;
77802;SDS011;66993;48.256;16.422;2023-06-14T20:25:06;13.4;;;8.2;;
77802;SDS011;66993;48.256;16.422;2023-06-14T20:30:07;11.6;;;7.6;;
77802;SDS011;66993;48.256;16.422;2023-06-14T20:35:28;13.1;;;6.4;;
77802;SDS011;66993;48.256;16.422;2023-06-14T20:40:23;9.4;;;6.4;;
77802;SDS011;66993;48.256;16.422;2023-06-14T20:45:21;9.9;;;5.9;;
77802;SDS011;66993;48.256;16.422;2023-06-14T20:50:20;10.5;;;6.8;;
77802;SDS011;66993;48.256;16.422;2023-06-14T20:55:16;9.6;;;6.9;;
77802;SDS011;66993;48.256;16.422;2023-06-14T21:00:18;11.0;;;7.0;;
77802;SDS011;66993;48.256;16.422;2023-06-14T21:05:22;10.5;;;6.7;;
77802;SDS011;66993;48.256;16.422;2023-06-14T21:10:18;9.8;;;6.2;;
77802;SDS011;66993;48.256;16.422;2023-06-14T21:15:18;12.1;;;7.8;;
77802;SDS011;66993;48.256;16.422;2023-06-14T21:20:20;11.7;;;7.8;;
77802;SDS011;66993;48.256;16.422;2023-06-14T21:25:20;12.7;;;7.7;;
77802;SDS011;66993;48.256;16.422;2023-06-14T21:35:23;12.3;;;7.1;;
77802;SDS011;66993;48.256;16.422;2023-06-14T21:40:24;12.5;;;7.5;;
77802;SDS011;66993;48.256;16.422;2023-06-14T21:45:25;13.6;;;8.6;;
77802;SDS011;66993;48.256;16.422;2023-06-14T21:50:28;15.6;;;9.4;;
77802;SDS011;66993;48.256;16.422;2023-06-14T21:55:28;14.3;;;8.7;;
77802;SDS011;66993;48.256;16.422;2023-06-14T22:00:29;13.5;;;8.6;;
77802;SDS011;66993;48.256;16.422;2023-06-14T22:05:30;12.9;;;8.0;;
77802;SDS011;66993;48.256;16.422;2023-06-14T22:10:33;12.5;;;8.0;;
77802;SDS011;66993;48.256;16.422;2023-06-14T22:15:33;12.6;;;8.7;;
77802;SDS011;66993;48.256;16.422;2023-06-14T22:20:34;10.7;;;7.7;;
77802;SDS011;66993;48.256;16.422;2023-06-14T22:25:36;7.9;;;6.2;;
77802;SDS011;66993;48.256;16.422;2023-06-14T22:30:37;9.6;;;5.4;;
77802;SDS011;66993;48.256;16.422;2023-06-14T22:35:38;9.2;;;5.3;;
77802;SDS011;66993;48.256;16.422;2023-06-14T22:40:40;10.2;;;6.3;;
77802;SDS011;66993;48.256;16.422;2023-06-14T22:45:41;9.8;;;5.8;;
77802;SDS011;66993;48.256;16.422;2023-06-14T22:50:42;8.9;;;6.1;;
77802;SDS011;66993;48.256;16.422;2023-06-14T22:55:43;7.9;;;5.7;;
77802;SDS011;66993;48.256;16.422;2023-06-14T23:00:45;10.6;;;6.5;;
77802;SDS011;66993;48.256;16.422;2023-06-14T23:05:46;10.7;;;6.6;;
77802;SDS011;66993;48.256;16.422;2023-06-14T23:10:48;11.6;;;6.5;;
77802;SDS011;66993;48.256;16.422;2023-06-14T23:15:48;9.2;;;6.6;;
77802;SDS011;66993;48.256;16.422;2023-06-14T23:20:49;8.3;;;6.2;;
77802;SDS011;66993;48.256;16.422;2023-06-14T23:25:51;10.0;;;6.8;;
77802;SDS011;66993;48.256;16.422;2023-06-14T23:30:52;11.9;;;7.0;;
77802;SDS011;66993;48.256;16.422;2023-06-14T23:35:53;9.8;;;6.6;;
77802;SDS011;66993;48.256;16.422;2023-06-14T23:40:55;10.4;;;7.3;;
77802;SDS011;66993;48.256;16.422;2023-06-14T23:45:56;11.1;;;7.0;;
77802;SDS011;66993;48.256;16.422;2023-06-14T23:50:57;10.9;;;6.5;;
77802;SDS011;66993;48.256;16.422;2023-06-14T23:55:58;9.8;;;6.6;;
